sensor_id;sensor_type;location;lat;lon;timestamp;pressure;altitude;pressure_sealevel;temperature;humidity
80837;BME280;70251;60.008;30.404;2023-12-22T00:02:22;97796.28;;;3.55;68.72
80837;BME280;70251;60.008;30.404;2023-12-22T00:04:49;97790.19;;;3.55;69.12
80837;BME280;70251;60.008;30.404;2023-12-22T00:07:15;97792.66;;;3.56;68.55
80837;BME280;70251;60.008;30.404;2023-12-22T00:09:47;97792.16;;;3.53;68.59
80837;BME280;70251;60.008;30.404;2023-12-22T00:12:34;97807.47;;;3.49;69.03
80837;BME280;70251;60.008;30.404;2023-12-22T00:15:10;97808.94;;;3.52;69.09
80837;BME280;70251;60.008;30.404;2023-12-22T00:17:42;97802.88;;;3.51;68.74
80837;BME280;70251;60.008;30.404;2023-12-22T00:20:10;97810.09;;;3.49;68.94
80837;BME280;70251;60.008;30.404;2023-12-22T00:22:57;97792.66;;;3.48;68.79
80837;BME280;70251;60.008;30.404;2023-12-22T00:25:22;97791.81;;;3.48;68.67
80837;BME280;70251;60.008;30.404;2023-12-22T00:27:55;97789.00;;;3.49;69.04
80837;BME280;70251;60.008;30.404;2023-12-22T00:30:24;97783.59;;;3.51;68.69
80837;BME280;70251;60.008;30.404;2023-12-22T00:32:55;97788.53;;;3.54;68.77
80837;BME280;70251;60.008;30.404;2023-12-22T00:35:22;97787.72;;;3.53;68.75
80837;BME280;70251;60.008;30.404;2023-12-22T00:37:53;97777.50;;;3.50;68.53
80837;BME280;70251;60.008;30.404;2023-12-22T00:40:23;97785.22;;;3.52;69.22
80837;BME280;70251;60.008;30.404;2023-12-22T00:42:52;97788.03;;;3.58;68.49
80837;BME280;70251;60.008;30.404;2023-12-22T00:45:18;97782.78;;;3.58;68.17
80837;BME280;70251;60.008;30.404;2023-12-22T00:47:45;97776.53;;;3.59;68.97
80837;BME280;70251;60.008;30.404;2023-12-22T00:50:11;97774.38;;;3.55;68.61
80837;BME280;70251;60.008;30.404;2023-12-22T00:52:38;97775.03;;;3.57;68.07
80837;BME280;70251;60.008;30.404;2023-12-22T00:55:10;97766.13;;;3.50;68.42
80837;BME280;70251;60.008;30.404;2023-12-22T00:57:37;97762.34;;;3.44;68.35
80837;BME280;70251;60.008;30.404;2023-12-22T01:00:04;97755.41;;;3.43;68.71
80837;BME280;70251;60.008;30.404;2023-12-22T01:02:31;97755.75;;;3.40;68.66
80837;BME280;70251;60.008;30.404;2023-12-22T01:04:57;97761.34;;;3.37;67.93
80837;BME280;70251;60.008;30.404;2023-12-22T01:07:22;97746.53;;;3.36;68.64
80837;BME280;70251;60.008;30.404;2023-12-22T01:09:48;97733.34;;;3.36;68.17
80837;BME280;70251;60.008;30.404;2023-12-22T01:12:14;97724.94;;;3.33;67.76
80837;BME280;70251;60.008;30.404;2023-12-22T01:14:39;97729.06;;;3.27;68.74
80837;BME280;70251;60.008;30.404;2023-12-22T01:17:05;97730.03;;;3.18;68.08
80837;BME280;70251;60.008;30.404;2023-12-22T01:19:30;97725.09;;;3.15;68.15
80837;BME280;70251;60.008;30.404;2023-12-22T01:21:56;97717.50;;;3.04;68.41
80837;BME280;70251;60.008;30.404;2023-12-22T01:24:21;97719.78;;;2.99;68.56
80837;BME280;70251;60.008;30.404;2023-12-22T01:26:47;97718.28;;;2.88;68.42
80837;BME280;70251;60.008;30.404;2023-12-22T01:29:13;97706.41;;;2.84;69.08
80837;BME280;70251;60.008;30.404;2023-12-22T01:31:38;97706.06;;;2.79;68.47
80837;BME280;70251;60.008;30.404;2023-12-22T01:34:04;97696.00;;;2.75;68.55
80837;BME280;70251;60.008;30.404;2023-12-22T01:36:30;97700.78;;;2.71;68.44
80837;BME280;70251;60.008;30.404;2023-12-22T01:38:55;97704.25;;;2.72;68.68
80837;BME280;70251;60.008;30.404;2023-12-22T01:41:21;97699.66;;;2.74;68.67
80837;BME280;70251;60.008;30.404;2023-12-22T01:43:47;97699.94;;;2.71;68.84
80837;BME280;70251;60.008;30.404;2023-12-22T01:46:14;97696.00;;;2.75;68.62
80837;BME280;70251;60.008;30.404;2023-12-22T01:48:39;97698.31;;;2.70;68.96
80837;BME280;70251;60.008;30.404;2023-12-22T01:51:06;97703.56;;;2.70;68.87
80837;BME280;70251;60.008;30.404;2023-12-22T01:53:33;97686.00;;;2.70;68.54
80837;BME280;70251;60.008;30.404;2023-12-22T01:55:59;97692.72;;;2.73;68.77
80837;BME280;70251;60.008;30.404;2023-12-22T01:58:27;97692.72;;;2.73;68.99
80837;BME280;70251;60.008;30.404;2023-12-22T02:00:55;97678.91;;;2.71;68.49
80837;BME280;70251;60.008;30.404;2023-12-22T02:03:21;97673.63;;;2.63;68.72
80837;BME280;70251;60.008;30.404;2023-12-22T02:05:47;97676.25;;;2.63;68.86
80837;BME280;70251;60.008;30.404;2023-12-22T02:08:15;97669.84;;;2.65;69.05
80837;BME280;70251;60.008;30.404;2023-12-22T02:10:43;97663.28;;;2.69;68.52
80837;BME280;70251;60.008;30.404;2023-12-22T02:13:09;97661.13;;;2.73;68.63
80837;BME280;70251;60.008;30.404;2023-12-22T02:15:35;97651.97;;;2.77;68.61
80837;BME280;70251;60.008;30.404;2023-12-22T02:20:55;97649.81;;;2.88;68.22
80837;BME280;70251;60.008;30.404;2023-12-22T02:23:20;97638.47;;;2.88;67.97
80837;BME280;70251;60.008;30.404;2023-12-22T02:25:46;97645.22;;;2.82;68.24
80837;BME280;70251;60.008;30.404;2023-12-22T02:28:17;97637.50;;;2.81;68.42
80837;BME280;70251;60.008;30.404;2023-12-22T02:30:56;97623.84;;;2.85;68.30
80837;BME280;70251;60.008;30.404;2023-12-22T02:33:31;97621.69;;;2.89;68.21
80837;BME280;70251;60.008;30.404;2023-12-22T02:36:03;97626.47;;;2.85;67.91
80837;BME280;70251;60.008;30.404;2023-12-22T02:38:30;97626.97;;;2.81;67.94
80837;BME280;70251;60.008;30.404;2023-12-22T02:40:57;97616.75;;;2.78;68.31
80837;BME280;70251;60.008;30.404;2023-12-22T02:43:23;97616.56;;;2.79;67.79
80837;BME280;70251;60.008;30.404;2023-12-22T02:45:51;97609.34;;;2.73;68.38
80837;BME280;70251;60.008;30.404;2023-12-22T02:48:17;97610.66;;;2.69;68.46
80837;BME280;70251;60.008;30.404;2023-12-22T02:50:43;97601.44;;;2.65;68.30
80837;BME280;70251;60.008;30.404;2023-12-22T02:53:09;97598.13;;;2.63;68.66
80837;BME280;70251;60.008;30.404;2023-12-22T02:55:34;97598.97;;;2.64;68.34
80837;BME280;70251;60.008;30.404;2023-12-22T02:58:00;97605.38;;;2.61;68.22
80837;BME280;70251;60.008;30.404;2023-12-22T03:00:26;97601.75;;;2.62;68.46
80837;BME280;70251;60.008;30.404;2023-12-22T03:03:02;97595.03;;;2.68;68.46
80837;BME280;70251;60.008;30.404;2023-12-22T03:05:27;97583.34;;;2.70;68.09
80837;BME280;70251;60.008;30.404;2023-12-22T03:07:53;97588.09;;;2.75;68.12
80837;BME280;70251;60.008;30.404;2023-12-22T03:10:19;97570.50;;;2.75;68.13
80837;BME280;70251;60.008;30.404;2023-12-22T03:12:45;97577.09;;;2.71;68.40
80837;BME280;70251;60.008;30.404;2023-12-22T03:15:10;97582.53;;;2.70;68.38
80837;BME280;70251;60.008;30.404;2023-12-22T03:17:36;97577.09;;;2.71;68.02
80837;BME280;70251;60.008;30.404;2023-12-22T03:20:01;97578.59;;;2.74;67.92
80837;BME280;70251;60.008;30.404;2023-12-22T03:22:30;97573.81;;;2.69;68.42
80837;BME280;70251;60.008;30.404;2023-12-22T03:24:55;97556.03;;;2.63;67.96
80837;BME280;70251;60.008;30.404;2023-12-22T03:27:21;97574.94;;;2.59;68.01
80837;BME280;70251;60.008;30.404;2023-12-22T03:29:47;97560.94;;;2.58;68.27
80837;BME280;70251;60.008;30.404;2023-12-22T03:32:13;97565.56;;;2.56;68.21
80837;BME280;70251;60.008;30.404;2023-12-22T03:34:38;97569.19;;;2.55;68.20
80837;BME280;70251;60.008;30.404;2023-12-22T03:37:04;97567.03;;;2.51;68.54
80837;BME280;70251;60.008;30.404;2023-12-22T03:39:29;97563.41;;;2.52;68.81
80837;BME280;70251;60.008;30.404;2023-12-22T03:41:55;97554.19;;;2.48;68.60
80837;BME280;70251;60.008;30.404;2023-12-22T03:44:21;97561.78;;;2.51;68.32
80837;BME280;70251;60.008;30.404;2023-12-22T03:46:46;97551.44;;;2.57;68.56
80837;BME280;70251;60.008;30.404;2023-12-22T03:49:12;97550.13;;;2.61;69.04
80837;BME280;70251;60.008;30.404;2023-12-22T03:51:38;97538.44;;;2.64;68.28
80837;BME280;70251;60.008;30.404;2023-12-22T03:54:07;97530.69;;;2.62;68.18
80837;BME280;70251;60.008;30.404;2023-12-22T03:56:32;97527.41;;;2.60;68.26
80837;BME280;70251;60.008;30.404;2023-12-22T03:58:58;97534.50;;;2.60;68.69
80837;BME280;70251;60.008;30.404;2023-12-22T04:01:24;97522.50;;;2.65;68.48
80837;BME280;70251;60.008;30.404;2023-12-22T04:03:49;97523.31;;;2.66;67.99
80837;BME280;70251;60.008;30.404;2023-12-22T04:06:15;97515.56;;;2.64;68.22
80837;BME280;70251;60.008;30.404;2023-12-22T04:08:41;97518.06;;;2.66;68.28
80837;BME280;70251;60.008;30.404;2023-12-22T04:11:06;97526.44;;;2.69;68.49
80837;BME280;70251;60.008;30.404;2023-12-22T04:13:32;97524.94;;;2.75;68.00
80837;BME280;70251;60.008;30.404;2023-12-22T04:15:58;97523.00;;;2.77;68.04
80837;BME280;70251;60.008;30.404;2023-12-22T04:18:24;97523.00;;;2.85;68.26
80837;BME280;70251;60.008;30.404;2023-12-22T04:20:49;97512.63;;;2.91;68.00
80837;BME280;70251;60.008;30.404;2023-12-22T04:23:19;97509.16;;;2.91;68.24
80837;BME280;70251;60.008;30.404;2023-12-22T04:25:45;97520.03;;;2.88;67.67
80837;BME280;70251;60.008;30.404;2023-12-22T04:28:10;97502.59;;;2.87;68.13
80837;BME280;70251;60.008;30.404;2023-12-22T04:30:36;97502.25;;;2.90;68.22
80837;BME280;70251;60.008;30.404;2023-12-22T04:33:02;97493.38;;;2.91;67.98
80837;BME280;70251;60.008;30.404;2023-12-22T04:35:28;97498.97;;;2.96;68.02
80837;BME280;70251;60.008;30.404;2023-12-22T04:37:53;97497.31;;;2.95;67.82
80837;BME280;70251;60.008;30.404;2023-12-22T04:40:36;97492.88;;;2.95;67.51
80837;BME280;70251;60.008;30.404;2023-12-22T04:43:22;97484.81;;;2.97;68.01
80837;BME280;70251;60.008;30.404;2023-12-22T04:45:51;97485.63;;;2.97;67.69
80837;BME280;70251;60.008;30.404;2023-12-22T04:48:17;97469.34;;;3.02;67.33
80837;BME280;70251;60.008;30.404;2023-12-22T04:50:44;97468.03;;;3.06;67.85
80837;BME280;70251;60.008;30.404;2023-12-22T04:53:11;97470.97;;;3.03;67.44
80837;BME280;70251;60.008;30.404;2023-12-22T04:55:36;97475.59;;;3.01;67.77
80837;BME280;70251;60.008;30.404;2023-12-22T04:58:02;97461.78;;;2.99;67.63
80837;BME280;70251;60.008;30.404;2023-12-22T05:00:28;97459.97;;;2.99;68.05
80837;BME280;70251;60.008;30.404;2023-12-22T05:02:54;97453.53;;;2.94;67.62
80837;BME280;70251;60.008;30.404;2023-12-22T05:05:19;97457.00;;;2.94;67.49
80837;BME280;70251;60.008;30.404;2023-12-22T05:07:45;97449.94;;;2.95;68.28
80837;BME280;70251;60.008;30.404;2023-12-22T05:10:11;97452.53;;;3.03;68.00
80837;BME280;70251;60.008;30.404;2023-12-22T05:12:36;97460.44;;;3.03;67.55
80837;BME280;70251;60.008;30.404;2023-12-22T05:15:02;97455.53;;;2.92;67.39
80837;BME280;70251;60.008;30.404;2023-12-22T05:17:30;97446.97;;;2.90;67.59
80837;BME280;70251;60.008;30.404;2023-12-22T05:19:58;97450.59;;;2.89;67.66
80837;BME280;70251;60.008;30.404;2023-12-22T05:22:24;97442.53;;;2.90;67.70
80837;BME280;70251;60.008;30.404;2023-12-22T05:24:49;97444.19;;;2.91;68.12
80837;BME280;70251;60.008;30.404;2023-12-22T05:27:15;97448.13;;;2.95;67.82
80837;BME280;70251;60.008;30.404;2023-12-22T05:29:41;97445.13;;;2.98;67.81
80837;BME280;70251;60.008;30.404;2023-12-22T05:32:06;97438.06;;;2.99;67.96
80837;BME280;70251;60.008;30.404;2023-12-22T05:34:33;97436.28;;;2.99;67.62
80837;BME280;70251;60.008;30.404;2023-12-22T05:36:58;97431.84;;;3.00;67.69
80837;BME280;70251;60.008;30.404;2023-12-22T05:39:35;97423.44;;;2.96;68.22
80837;BME280;70251;60.008;30.404;2023-12-22T05:42:02;97431.84;;;3.00;67.52
80837;BME280;70251;60.008;30.404;2023-12-22T05:44:28;97435.28;;;2.92;67.54
80837;BME280;70251;60.008;30.404;2023-12-22T05:47:00;97429.19;;;2.92;67.81
80837;BME280;70251;60.008;30.404;2023-12-22T05:49:25;97428.88;;;2.95;67.99
80837;BME280;70251;60.008;30.404;2023-12-22T05:51:51;97413.06;;;3.03;67.47
80837;BME280;70251;60.008;30.404;2023-12-22T05:54:19;97425.38;;;3.10;67.60
80837;BME280;70251;60.008;30.404;2023-12-22T05:56:45;97419.28;;;3.10;68.24
80837;BME280;70251;60.008;30.404;2023-12-22T05:59:11;97421.09;;;3.09;67.50
80837;BME280;70251;60.008;30.404;2023-12-22T06:01:36;97423.09;;;3.07;67.93
80837;BME280;70251;60.008;30.404;2023-12-22T06:04:02;97424.09;;;3.06;67.50
80837;BME280;70251;60.008;30.404;2023-12-22T06:06:28;97423.28;;;2.98;67.34
80837;BME280;70251;60.008;30.404;2023-12-22T06:08:55;97426.88;;;2.97;68.18
80837;BME280;70251;60.008;30.404;2023-12-22T06:11:21;97428.19;;;3.01;67.66
80837;BME280;70251;60.008;30.404;2023-12-22T06:13:47;97416.50;;;3.03;67.77
80837;BME280;70251;60.008;30.404;2023-12-22T06:16:13;97405.97;;;3.03;67.76
80837;BME280;70251;60.008;30.404;2023-12-22T06:18:40;97417.66;;;3.01;68.21
80837;BME280;70251;60.008;30.404;2023-12-22T06:21:08;97414.19;;;3.00;67.94
80837;BME280;70251;60.008;30.404;2023-12-22T06:23:34;97407.78;;;3.03;68.24
80837;BME280;70251;60.008;30.404;2023-12-22T06:25:59;97403.16;;;3.05;68.39
80837;BME280;70251;60.008;30.404;2023-12-22T06:28:27;97401.53;;;3.04;67.72
80837;BME280;70251;60.008;30.404;2023-12-22T06:30:53;97406.44;;;3.07;68.21
80837;BME280;70251;60.008;30.404;2023-12-22T06:33:19;97408.94;;;3.08;68.04
80837;BME280;70251;60.008;30.404;2023-12-22T06:35:45;97415.34;;;3.06;68.22
80837;BME280;70251;60.008;30.404;2023-12-22T06:38:11;97403.53;;;3.02;68.18
80837;BME280;70251;60.008;30.404;2023-12-22T06:40:37;97405.00;;;2.96;68.25
80837;BME280;70251;60.008;30.404;2023-12-22T06:43:04;97401.72;;;2.94;68.52
80837;BME280;70251;60.008;30.404;2023-12-22T06:45:30;97409.47;;;2.96;68.15
80837;BME280;70251;60.008;30.404;2023-12-22T06:47:56;97405.19;;;2.95;68.67
80837;BME280;70251;60.008;30.404;2023-12-22T06:50:21;97413.72;;;2.97;68.38
80837;BME280;70251;60.008;30.404;2023-12-22T06:52:47;97411.94;;;2.97;68.49
80837;BME280;70251;60.008;30.404;2023-12-22T06:55:14;97404.06;;;2.89;69.34
80837;BME280;70251;60.008;30.404;2023-12-22T06:57:40;97405.69;;;2.90;69.11
80837;BME280;70251;60.008;30.404;2023-12-22T07:00:06;97405.38;;;2.85;68.38
80837;BME280;70251;60.008;30.404;2023-12-22T07:03:08;97419.03;;;2.89;69.31
80837;BME280;70251;60.008;30.404;2023-12-22T07:05:34;97408.50;;;2.89;68.66
80837;BME280;70251;60.008;30.404;2023-12-22T07:08:01;97415.09;;;2.85;69.25
80837;BME280;70251;60.008;30.404;2023-12-22T07:10:27;97403.53;;;2.86;69.30
80837;BME280;70251;60.008;30.404;2023-12-22T07:12:53;97402.56;;;2.87;69.08
80837;BME280;70251;60.008;30.404;2023-12-22T07:15:18;97408.13;;;2.92;69.05
80837;BME280;70251;60.008;30.404;2023-12-22T07:17:44;97392.84;;;2.95;68.97
80837;BME280;70251;60.008;30.404;2023-12-22T07:20:10;97388.41;;;2.96;69.25
80837;BME280;70251;60.008;30.404;2023-12-22T07:22:36;97392.66;;;2.97;69.52
80837;BME280;70251;60.008;30.404;2023-12-22T07:25:01;97392.00;;;2.95;69.06
80837;BME280;70251;60.008;30.404;2023-12-22T07:27:29;97392.16;;;3.01;69.42
80837;BME280;70251;60.008;30.404;2023-12-22T07:29:55;97371.75;;;3.03;68.69
80837;BME280;70251;60.008;30.404;2023-12-22T07:32:20;97375.72;;;2.99;68.57
80837;BME280;70251;60.008;30.404;2023-12-22T07:38:17;97351.38;;;2.97;69.15
80837;BME280;70251;60.008;30.404;2023-12-22T07:40:54;97368.16;;;3.04;69.15
80837;BME280;70251;60.008;30.404;2023-12-22T07:43:26;97369.13;;;3.03;69.55
80837;BME280;70251;60.008;30.404;2023-12-22T07:45:55;97359.25;;;3.05;68.96
80837;BME280;70251;60.008;30.404;2023-12-22T07:48:21;97362.19;;;3.10;69.03
80837;BME280;70251;60.008;30.404;2023-12-22T07:50:46;97371.25;;;3.08;69.10
80837;BME280;70251;60.008;30.404;2023-12-22T07:53:12;97367.94;;;3.14;69.14
80837;BME280;70251;60.008;30.404;2023-12-22T07:55:39;97369.22;;;3.18;69.81
80837;BME280;70251;60.008;30.404;2023-12-22T07:58:05;97364.31;;;3.15;69.50
80837;BME280;70251;60.008;30.404;2023-12-22T08:00:31;97367.59;;;3.17;69.31
80837;BME280;70251;60.008;30.404;2023-12-22T08:03:00;97363.31;;;3.16;69.46
80837;BME280;70251;60.008;30.404;2023-12-22T08:05:26;97362.16;;;3.19;69.59
80837;BME280;70251;60.008;30.404;2023-12-22T08:07:52;97357.53;;;3.21;69.99
80837;BME280;70251;60.008;30.404;2023-12-22T08:10:18;97363.28;;;3.24;69.14
80837;BME280;70251;60.008;30.404;2023-12-22T08:12:44;97360.31;;;3.27;69.65
80837;BME280;70251;60.008;30.404;2023-12-22T08:15:10;97370.84;;;3.27;68.91
80837;BME280;70251;60.008;30.404;2023-12-22T08:17:49;97365.22;;;3.30;69.96
80837;BME280;70251;60.008;30.404;2023-12-22T08:20:18;97354.84;;;3.29;69.31
80837;BME280;70251;60.008;30.404;2023-12-22T08:22:49;97360.31;;;3.27;69.89
80837;BME280;70251;60.008;30.404;2023-12-22T08:25:15;97360.94;;;3.29;69.75
80837;BME280;70251;60.008;30.404;2023-12-22T08:27:41;97361.13;;;3.28;68.99
80837;BME280;70251;60.008;30.404;2023-12-22T08:30:09;97365.06;;;3.32;69.27
80837;BME280;70251;60.008;30.404;2023-12-22T08:32:34;97358.50;;;3.28;69.38
80837;BME280;70251;60.008;30.404;2023-12-22T08:35:00;97350.59;;;3.28;69.08
80837;BME280;70251;60.008;30.404;2023-12-22T08:37:26;97349.59;;;3.29;69.06
80837;BME280;70251;60.008;30.404;2023-12-22T08:39:51;97353.38;;;3.26;69.40
80837;BME280;70251;60.008;30.404;2023-12-22T08:42:20;97352.41;;;3.27;69.10
80837;BME280;70251;60.008;30.404;2023-12-22T08:44:51;97347.78;;;3.29;68.89
80837;BME280;70251;60.008;30.404;2023-12-22T08:47:17;97338.22;;;3.28;69.23
80837;BME280;70251;60.008;30.404;2023-12-22T08:49:42;97345.78;;;3.31;69.34
80837;BME280;70251;60.008;30.404;2023-12-22T08:52:23;97340.84;;;3.36;69.47
80837;BME280;70251;60.008;30.404;2023-12-22T08:54:49;97332.97;;;3.28;69.57
80837;BME280;70251;60.008;30.404;2023-12-22T08:57:14;97333.50;;;3.24;69.67
80837;BME280;70251;60.008;30.404;2023-12-22T08:59:40;97326.25;;;3.26;69.70
80837;BME280;70251;60.008;30.404;2023-12-22T09:02:06;97322.13;;;3.23;70.01
80837;BME280;70251;60.008;30.404;2023-12-22T09:04:31;97329.69;;;3.26;69.65
80837;BME280;70251;60.008;30.404;2023-12-22T09:06:57;97315.53;;;3.27;69.62
80837;BME280;70251;60.008;30.404;2023-12-22T09:09:22;97313.88;;;3.26;69.17
80837;BME280;70251;60.008;30.404;2023-12-22T09:11:50;97325.94;;;3.21;69.53
80837;BME280;70251;60.008;30.404;2023-12-22T09:14:18;97317.38;;;3.19;69.53
80837;BME280;70251;60.008;30.404;2023-12-22T09:16:44;97312.31;;;3.17;69.87
80837;BME280;70251;60.008;30.404;2023-12-22T09:19:19;97314.28;;;3.15;69.76
80837;BME280;70251;60.008;30.404;2023-12-22T09:21:45;97313.94;;;3.18;69.72
80837;BME280;70251;60.008;30.404;2023-12-22T09:24:10;97307.81;;;3.26;70.17
80837;BME280;70251;60.008;30.404;2023-12-22T09:26:40;97308.47;;;3.28;69.82
80837;BME280;70251;60.008;30.404;2023-12-22T09:29:09;97303.34;;;3.26;70.24
80837;BME280;70251;60.008;30.404;2023-12-22T09:31:34;97305.97;;;3.26;69.70
80837;BME280;70251;60.008;30.404;2023-12-22T09:34:00;97296.59;;;3.32;70.03
80837;BME280;70251;60.008;30.404;2023-12-22T09:36:26;97294.09;;;3.30;69.79
80837;BME280;70251;60.008;30.404;2023-12-22T09:41:50;97278.97;;;3.32;70.19
80837;BME280;70251;60.008;30.404;2023-12-22T09:44:20;97284.25;;;3.32;70.32
80837;BME280;70251;60.008;30.404;2023-12-22T09:46:53;97283.56;;;3.30;70.16
80837;BME280;70251;60.008;30.404;2023-12-22T09:49:24;97275.31;;;3.33;70.36
80837;BME280;70251;60.008;30.404;2023-12-22T09:52:01;97276.50;;;3.31;70.11
80837;BME280;70251;60.008;30.404;2023-12-22T09:54:30;97273.34;;;3.35;70.66
80837;BME280;70251;60.008;30.404;2023-12-22T09:56:56;97264.47;;;3.36;70.02
80837;BME280;70251;60.008;30.404;2023-12-22T09:59:23;97270.19;;;3.40;70.37
80837;BME280;70251;60.008;30.404;2023-12-22T10:01:50;97264.09;;;3.39;69.93
80837;BME280;70251;60.008;30.404;2023-12-22T10:04:21;97265.44;;;3.35;70.06
80837;BME280;70251;60.008;30.404;2023-12-22T10:06:48;97258.19;;;3.37;70.50
80837;BME280;70251;60.008;30.404;2023-12-22T10:09:16;97263.56;;;3.44;70.27
80837;BME280;70251;60.008;30.404;2023-12-22T10:11:43;97257.13;;;3.46;70.68
80837;BME280;70251;60.008;30.404;2023-12-22T10:14:10;97254.84;;;3.43;70.45
80837;BME280;70251;60.008;30.404;2023-12-22T10:16:36;97240.22;;;3.41;70.11
80837;BME280;70251;60.008;30.404;2023-12-22T10:19:08;97237.28;;;3.36;70.63
80837;BME280;70251;60.008;30.404;2023-12-22T10:21:34;97242.88;;;3.41;70.32
80837;BME280;70251;60.008;30.404;2023-12-22T10:24:00;97239.66;;;3.45;69.91
80837;BME280;70251;60.008;30.404;2023-12-22T10:26:26;97244.09;;;3.53;70.33
80837;BME280;70251;60.008;30.404;2023-12-22T10:28:51;97237.28;;;3.58;70.31
80837;BME280;70251;60.008;30.404;2023-12-22T10:31:18;97233.28;;;3.62;70.04
80837;BME280;70251;60.008;30.404;2023-12-22T10:33:44;97236.94;;;3.61;70.09
80837;BME280;70251;60.008;30.404;2023-12-22T10:36:10;97233.13;;;3.64;70.15
80837;BME280;70251;60.008;30.404;2023-12-22T10:38:36;97231.28;;;3.64;70.08
80837;BME280;70251;60.008;30.404;2023-12-22T10:41:02;97229.22;;;3.60;70.48
80837;BME280;70251;60.008;30.404;2023-12-22T10:43:29;97234.00;;;3.56;69.98
80837;BME280;70251;60.008;30.404;2023-12-22T10:45:55;97226.72;;;3.58;70.49
80837;BME280;70251;60.008;30.404;2023-12-22T10:48:21;97226.09;;;3.56;70.21
80837;BME280;70251;60.008;30.404;2023-12-22T10:50:48;97227.91;;;3.56;70.63
80837;BME280;70251;60.008;30.404;2023-12-22T10:53:14;97228.28;;;3.53;70.48
80837;BME280;70251;60.008;30.404;2023-12-22T10:55:40;97220.63;;;3.58;70.83
80837;BME280;70251;60.008;30.404;2023-12-22T10:58:06;97219.00;;;3.57;70.27
80837;BME280;70251;60.008;30.404;2023-12-22T11:00:37;97223.47;;;3.56;70.83
80837;BME280;70251;60.008;30.404;2023-12-22T11:03:06;97218.56;;;3.53;70.80
80837;BME280;70251;60.008;30.404;2023-12-22T11:05:36;97216.19;;;3.58;70.87
80837;BME280;70251;60.008;30.404;2023-12-22T11:08:03;97215.84;;;3.61;70.84
80837;BME280;70251;60.008;30.404;2023-12-22T11:10:30;97211.94;;;3.57;71.12
80837;BME280;70251;60.008;30.404;2023-12-22T11:13:03;97203.50;;;3.62;70.57
80837;BME280;70251;60.008;30.404;2023-12-22T11:15:30;97213.97;;;3.70;70.91
80837;BME280;70251;60.008;30.404;2023-12-22T11:17:57;97210.44;;;3.77;70.17
80837;BME280;70251;60.008;30.404;2023-12-22T11:20:25;97211.91;;;3.80;70.78
80837;BME280;70251;60.008;30.404;2023-12-22T11:22:54;97212.34;;;3.83;70.62
80837;BME280;70251;60.008;30.404;2023-12-22T11:25:22;97219.91;;;3.86;70.00
80837;BME280;70251;60.008;30.404;2023-12-22T11:27:51;97211.03;;;3.87;70.21
80837;BME280;70251;60.008;30.404;2023-12-22T11:30:18;97215.28;;;3.88;70.13
80837;BME280;70251;60.008;30.404;2023-12-22T11:32:46;97213.66;;;3.87;70.66
80837;BME280;70251;60.008;30.404;2023-12-22T11:35:12;97221.91;;;3.84;70.55
80837;BME280;70251;60.008;30.404;2023-12-22T11:37:39;97216.00;;;3.82;71.01
80837;BME280;70251;60.008;30.404;2023-12-22T11:40:06;97224.53;;;3.84;70.88
80837;BME280;70251;60.008;30.404;2023-12-22T11:42:37;97218.56;;;3.90;70.57
80837;BME280;70251;60.008;30.404;2023-12-22T11:45:09;97223.19;;;3.88;70.17
80837;BME280;70251;60.008;30.404;2023-12-22T11:47:37;97222.38;;;3.88;70.56
80837;BME280;70251;60.008;30.404;2023-12-22T11:50:04;97219.91;;;3.86;70.96
80837;BME280;70251;60.008;30.404;2023-12-22T11:52:34;97224.47;;;3.92;71.15
80837;BME280;70251;60.008;30.404;2023-12-22T11:55:02;97219.50;;;3.98;70.16
80837;BME280;70251;60.008;30.404;2023-12-22T11:57:38;97218.13;;;4.02;70.96
80837;BME280;70251;60.008;30.404;2023-12-22T12:02:55;97217.69;;;3.98;70.79
80837;BME280;70251;60.008;30.404;2023-12-22T12:05:20;97220.47;;;3.97;70.93
80837;BME280;70251;60.008;30.404;2023-12-22T12:07:47;97215.09;;;3.90;70.42
80837;BME280;70251;60.008;30.404;2023-12-22T12:13:09;97214.84;;;4.00;71.16
80837;BME280;70251;60.008;30.404;2023-12-22T12:15:36;97208.41;;;4.02;70.81
80837;BME280;70251;60.008;30.404;2023-12-22T12:18:03;97206.56;;;4.03;70.11
80837;BME280;70251;60.008;30.404;2023-12-22T12:20:30;97206.56;;;4.03;70.44
80837;BME280;70251;60.008;30.404;2023-12-22T12:22:56;97207.75;;;4.00;70.39
80837;BME280;70251;60.008;30.404;2023-12-22T12:25:22;97201.47;;;4.01;70.50
80837;BME280;70251;60.008;30.404;2023-12-22T12:28:05;97208.22;;;4.04;70.51
80837;BME280;70251;60.008;30.404;2023-12-22T12:30:35;97207.28;;;3.97;70.72
80837;BME280;70251;60.008;30.404;2023-12-22T12:33:09;97211.91;;;3.94;71.01
80837;BME280;70251;60.008;30.404;2023-12-22T12:35:36;97203.84;;;3.96;71.12
80837;BME280;70251;60.008;30.404;2023-12-22T12:38:03;97211.56;;;3.98;71.00
80837;BME280;70251;60.008;30.404;2023-12-22T12:40:29;97211.56;;;3.98;70.51
80837;BME280;70251;60.008;30.404;2023-12-22T12:42:56;97215.84;;;3.99;71.05
80837;BME280;70251;60.008;30.404;2023-12-22T12:45:22;97219.00;;;3.94;70.88
80837;BME280;70251;60.008;30.404;2023-12-22T12:47:58;97223.63;;;3.92;71.06
80837;BME280;70251;60.008;30.404;2023-12-22T12:50:25;97225.47;;;3.91;71.05
80837;BME280;70251;60.008;30.404;2023-12-22T12:52:54;97217.19;;;3.94;70.71
80837;BME280;70251;60.008;30.404;2023-12-22T12:55:21;97225.75;;;3.97;70.98
80837;BME280;70251;60.008;30.404;2023-12-22T12:57:49;97217.28;;;4.01;70.66
80837;BME280;70251;60.008;30.404;2023-12-22T13:00:17;97218.56;;;4.05;70.98
80837;BME280;70251;60.008;30.404;2023-12-22T13:02:49;97220.38;;;4.05;70.39
80837;BME280;70251;60.008;30.404;2023-12-22T13:05:23;97222.22;;;4.04;71.42
80837;BME280;70251;60.008;30.404;2023-12-22T13:07:49;97219.41;;;4.06;70.58
80837;BME280;70251;60.008;30.404;2023-12-22T13:10:22;97213.13;;;4.07;70.85
80837;BME280;70251;60.008;30.404;2023-12-22T13:12:50;97213.13;;;4.07;70.53
80837;BME280;70251;60.008;30.404;2023-12-22T13:15:16;97210.50;;;4.07;71.13
80837;BME280;70251;60.008;30.404;2023-12-22T13:17:43;97215.78;;;4.07;71.24